sensor_id;sensor_type;location;lat;lon;timestamp;pressure;altitude;pressure_sealevel;temperature;humidity
10718;BME280;13513;42.700;23.124;2023-05-23T00:01:41;92832.97;;;11.09;100.00
10718;BME280;13513;42.700;23.124;2023-05-23T00:04:12;92834.81;;;11.08;100.00
10718;BME280;13513;42.700;23.124;2023-05-23T00:06:45;92833.23;;;11.10;100.00
10718;BME280;13513;42.700;23.124;2023-05-23T00:09:15;92834.56;;;11.10;100.00
10718;BME280;13513;42.700;23.124;2023-05-23T00:11:46;92833.50;;;11.11;100.00
10718;BME280;13513;42.700;23.124;2023-05-23T00:14:16;92825.02;;;11.06;100.00
10718;BME280;13513;42.700;23.124;2023-05-23T00:16:49;92826.12;;;11.10;100.00
10718;BME280;13513;42.700;23.124;2023-05-23T00:19:23;92822.47;;;11.19;100.00
10718;BME280;13513;42.700;23.124;2023-05-23T00:21:54;92821.13;;;11.16;100.00
10718;BME280;13513;42.700;23.124;2023-05-23T00:24:25;92813.52;;;11.22;100.00
10718;BME280;13513;42.700;23.124;2023-05-23T00:26:56;92821.70;;;11.21;100.00
10718;BME280;13513;42.700;23.124;2023-05-23T00:29:28;92821.20;;;11.24;100.00
10718;BME280;13513;42.700;23.124;2023-05-23T00:31:59;92813.22;;;11.21;100.00
10718;BME280;13513;42.700;23.124;2023-05-23T00:34:29;92818.58;;;11.26;100.00
10718;BME280;13513;42.700;23.124;2023-05-23T00:37:01;92816.46;;;11.28;100.00
10718;BME280;13513;42.700;23.124;2023-05-23T00:39:31;92818.25;;;11.20;100.00
10718;BME280;13513;42.700;23.124;2023-05-23T00:42:03;92815.94;;;11.26;100.00
10718;BME280;13513;42.700;23.124;2023-05-23T00:44:34;92811.73;;;11.30;100.00
10718;BME280;13513;42.700;23.124;2023-05-23T00:47:07;92812.55;;;11.33;100.00
10718;BME280;13513;42.700;23.124;2023-05-23T00:49:38;92813.08;;;11.35;100.00
10718;BME280;13513;42.700;23.124;2023-05-23T00:52:09;92809.00;;;11.20;100.00
10718;BME280;13513;42.700;23.124;2023-05-23T00:54:40;92818.58;;;11.26;100.00
10718;BME280;13513;42.700;23.124;2023-05-23T00:57:12;92817.75;;;11.23;100.00
10718;BME280;13513;42.700;23.124;2023-05-23T00:59:44;92818.00;;;11.22;100.00
10718;BME280;13513;42.700;23.124;2023-05-23T01:02:14;92816.95;;;11.25;100.00
10718;BME280;13513;42.700;23.124;2023-05-23T01:04:44;92820.63;;;11.19;100.00
10718;BME280;13513;42.700;23.124;2023-05-23T01:07:15;92819.11;;;11.28;100.00
10718;BME280;13513;42.700;23.124;2023-05-23T01:09:46;92824.13;;;11.27;100.00
10718;BME280;13513;42.700;23.124;2023-05-23T01:12:28;92823.37;;;11.29;100.00
10718;BME280;13513;42.700;23.124;2023-05-23T01:15:03;92824.22;;;11.37;100.00
10718;BME280;13513;42.700;23.124;2023-05-23T01:17:43;92823.38;;;11.32;100.00
10718;BME280;13513;42.700;23.124;2023-05-23T01:20:56;92822.61;;;11.36;100.00
10718;BME280;13513;42.700;23.124;2023-05-23T01:28:22;92823.98;;;11.41;100.00
10718;BME280;13513;42.700;23.124;2023-05-23T01:30:56;92813.29;;;11.26;100.00
10718;BME280;13513;42.700;23.124;2023-05-23T01:33:27;92815.09;;;11.21;100.00
10718;BME280;13513;42.700;23.124;2023-05-23T01:36:02;92815.87;;;11.21;100.00
10718;BME280;13513;42.700;23.124;2023-05-23T01:38:34;92812.61;;;11.12;100.00
10718;BME280;13513;42.700;23.124;2023-05-23T01:41:04;92809.45;;;11.12;100.00
10718;BME280;13513;42.700;23.124;2023-05-23T01:43:35;92800.17;;;11.07;100.00
10718;BME280;13513;42.700;23.124;2023-05-23T01:46:08;92797.03;;;11.10;100.00
10718;BME280;13513;42.700;23.124;2023-05-23T01:48:39;92791.88;;;10.96;100.00
10718;BME280;13513;42.700;23.124;2023-05-23T01:51:11;92788.00;;;10.77;100.00
10718;BME280;13513;42.700;23.124;2023-05-23T01:53:43;92791.45;;;10.78;100.00
10718;BME280;13513;42.700;23.124;2023-05-23T01:56:14;92791.05;;;10.93;100.00
10718;BME280;13513;42.700;23.124;2023-05-23T01:58:45;92792.14;;;10.97;100.00
10718;BME280;13513;42.700;23.124;2023-05-23T02:01:16;92794.53;;;10.99;100.00
10718;BME280;13513;42.700;23.124;2023-05-23T02:03:47;92792.64;;;10.94;100.00
10718;BME280;13513;42.700;23.124;2023-05-23T02:06:18;92792.11;;;10.92;100.00
10718;BME280;13513;42.700;23.124;2023-05-23T02:08:49;92795.36;;;11.02;100.00
10718;BME280;13513;42.700;23.124;2023-05-23T02:11:19;92793.00;;;11.05;100.00
10718;BME280;13513;42.700;23.124;2023-05-23T02:13:50;92794.06;;;11.04;100.00
10718;BME280;13513;42.700;23.124;2023-05-23T02:16:21;92795.39;;;11.07;100.00
10718;BME280;13513;42.700;23.124;2023-05-23T02:18:52;92798.60;;;11.09;100.00
10718;BME280;13513;42.700;23.124;2023-05-23T02:21:24;92799.97;;;11.16;100.00
10718;BME280;13513;42.700;23.124;2023-05-23T02:23:55;92799.21;;;11.18;100.00
10718;BME280;13513;42.700;23.124;2023-05-23T02:26:26;92802.94;;;11.22;100.00
10718;BME280;13513;42.700;23.124;2023-05-23T02:28:57;92801.62;;;11.22;100.00
10718;BME280;13513;42.700;23.124;2023-05-23T02:31:28;92793.44;;;11.24;100.00
10718;BME280;13513;42.700;23.124;2023-05-23T02:33:59;92789.13;;;11.15;100.00
10718;BME280;13513;42.700;23.124;2023-05-23T02:36:30;92787.50;;;11.12;100.00
10718;BME280;13513;42.700;23.124;2023-05-23T02:39:01;92790.31;;;10.98;100.00
10718;BME280;13513;42.700;23.124;2023-05-23T02:41:32;92783.00;;;11.10;100.00
10718;BME280;13513;42.700;23.124;2023-05-23T02:44:03;92781.40;;;11.06;100.00
10718;BME280;13513;42.700;23.124;2023-05-23T02:46:34;92780.09;;;11.09;100.00
10718;BME280;13513;42.700;23.124;2023-05-23T02:49:04;92777.71;;;11.10;100.00
10718;BME280;13513;42.700;23.124;2023-05-23T02:51:37;92779.72;;;10.95;100.00
10718;BME280;13513;42.700;23.124;2023-05-23T02:54:08;92779.00;;;11.05;100.00
10718;BME280;13513;42.700;23.124;2023-05-23T02:56:39;92779.48;;;10.99;100.00
10718;BME280;13513;42.700;23.124;2023-05-23T02:59:09;92784.84;;;11.09;100.00
10718;BME280;13513;42.700;23.124;2023-05-23T03:01:41;92781.83;;;10.98;100.00
10718;BME280;13513;42.700;23.124;2023-05-23T03:04:12;92787.80;;;11.13;100.00
10718;BME280;13513;42.700;23.124;2023-05-23T03:06:43;92791.80;;;11.20;100.00
10718;BME280;13513;42.700;23.124;2023-05-23T03:09:15;92801.09;;;11.25;100.00
10718;BME280;13513;42.700;23.124;2023-05-23T03:11:46;92797.95;;;11.28;100.00
10718;BME280;13513;42.700;23.124;2023-05-23T03:14:16;92799.03;;;11.32;100.00
10718;BME280;13513;42.700;23.124;2023-05-23T03:16:47;92802.16;;;11.27;100.00
10718;BME280;13513;42.700;23.124;2023-05-23T03:19:18;92798.87;;;11.44;100.00
10718;BME280;13513;42.700;23.124;2023-05-23T03:21:50;92793.87;;;11.50;100.00
10718;BME280;13513;42.700;23.124;2023-05-23T03:24:21;92788.09;;;11.55;100.00
10718;BME280;13513;42.700;23.124;2023-05-23T03:26:52;92787.89;;;11.62;100.00
10718;BME280;13513;42.700;23.124;2023-05-23T03:29:24;92791.41;;;11.72;100.00
10718;BME280;13513;42.700;23.124;2023-05-23T03:31:54;92796.11;;;11.60;100.00
10718;BME280;13513;42.700;23.124;2023-05-23T03:34:25;92798.68;;;11.58;100.00
10718;BME280;13513;42.700;23.124;2023-05-23T03:36:56;92805.98;;;11.75;100.00
10718;BME280;13513;42.700;23.124;2023-05-23T03:39:27;92801.02;;;11.83;100.00
10718;BME280;13513;42.700;23.124;2023-05-23T03:41:58;92807.41;;;11.95;100.00
10718;BME280;13513;42.700;23.124;2023-05-23T03:44:29;92811.45;;;12.07;100.00
10718;BME280;13513;42.700;23.124;2023-05-23T03:47:00;92818.09;;;12.10;100.00
10718;BME280;13513;42.700;23.124;2023-05-23T03:49:30;92818.94;;;12.25;100.00
10718;BME280;13513;42.700;23.124;2023-05-23T03:52:01;92818.48;;;12.36;100.00
10718;BME280;13513;42.700;23.124;2023-05-23T03:54:32;92818.79;;;12.47;100.00
10718;BME280;13513;42.700;23.124;2023-05-23T03:57:03;92822.53;;;12.64;100.00
10718;BME280;13513;42.700;23.124;2023-05-23T03:59:34;92816.75;;;12.82;100.00
10718;BME280;13513;42.700;23.124;2023-05-23T04:02:05;92815.23;;;13.03;100.00
10718;BME280;13513;42.700;23.124;2023-05-23T04:04:36;92809.42;;;13.21;100.00
10718;BME280;13513;42.700;23.124;2023-05-23T04:07:08;92808.11;;;13.36;100.00
10718;BME280;13513;42.700;23.124;2023-05-23T04:09:40;92796.94;;;13.49;100.00
10718;BME280;13513;42.700;23.124;2023-05-23T04:12:11;92799.61;;;13.59;100.00
10718;BME280;13513;42.700;23.124;2023-05-23T04:14:42;92801.98;;;13.56;100.00
10718;BME280;13513;42.700;23.124;2023-05-23T04:17:12;92801.44;;;13.71;100.00
10718;BME280;13513;42.700;23.124;2023-05-23T04:19:43;92810.45;;;13.90;100.00
10718;BME280;13513;42.700;23.124;2023-05-23T04:22:13;92811.22;;;13.98;100.00
10718;BME280;13513;42.700;23.124;2023-05-23T04:24:44;92815.75;;;13.83;100.00
10718;BME280;13513;42.700;23.124;2023-05-23T04:27:16;92815.96;;;14.11;100.00
10718;BME280;13513;42.700;23.124;2023-05-23T04:29:45;92811.92;;;14.34;100.00
10718;BME280;13513;42.700;23.124;2023-05-23T04:32:16;92806.52;;;14.59;100.00
10718;BME280;13513;42.700;23.124;2023-05-23T04:34:47;92798.90;;;14.91;100.00
10718;BME280;13513;42.700;23.124;2023-05-23T04:37:19;92807.97;;;15.31;100.00
10718;BME280;13513;42.700;23.124;2023-05-23T04:39:49;92808.42;;;15.76;100.00
10718;BME280;13513;42.700;23.124;2023-05-23T04:42:20;92813.59;;;16.20;100.00
10718;BME280;13513;42.700;23.124;2023-05-23T04:44:52;92824.42;;;16.78;99.97
10718;BME280;13513;42.700;23.124;2023-05-23T04:47:23;92815.02;;;17.23;94.15
10718;BME280;13513;42.700;23.124;2023-05-23T04:49:53;92813.52;;;17.70;91.38
10718;BME280;13513;42.700;23.124;2023-05-23T04:52:24;92807.05;;;18.05;88.90
10718;BME280;13513;42.700;23.124;2023-05-23T04:54:55;92808.37;;;18.51;82.91
10718;BME280;13513;42.700;23.124;2023-05-23T04:57:26;92812.42;;;18.89;82.32
10718;BME280;13513;42.700;23.124;2023-05-23T04:59:57;92810.87;;;19.12;80.22
10718;BME280;13513;42.700;23.124;2023-05-23T05:02:28;92802.55;;;19.49;79.27
10718;BME280;13513;42.700;23.124;2023-05-23T05:05:01;92804.22;;;19.92;76.52
10718;BME280;13513;42.700;23.124;2023-05-23T05:07:32;92803.64;;;20.56;71.27
10718;BME280;13513;42.700;23.124;2023-05-23T05:10:04;92805.84;;;21.21;67.52
10718;BME280;13513;42.700;23.124;2023-05-23T05:12:35;92813.20;;;21.97;64.42
10718;BME280;13513;42.700;23.124;2023-05-23T05:15:07;92816.08;;;22.72;58.97
10718;BME280;13513;42.700;23.124;2023-05-23T05:17:38;92820.33;;;22.96;57.28
10718;BME280;13513;42.700;23.124;2023-05-23T05:20:08;92820.45;;;23.14;51.82
10718;BME280;13513;42.700;23.124;2023-05-23T05:22:39;92818.20;;;22.87;54.21
10718;BME280;13513;42.700;23.124;2023-05-23T05:25:12;92818.70;;;22.26;54.80
10718;BME280;13513;42.700;23.124;2023-05-23T05:27:44;92826.65;;;21.97;56.75
10718;BME280;13513;42.700;23.124;2023-05-23T05:30:15;92819.91;;;20.10;67.94
10718;BME280;13513;42.700;23.124;2023-05-23T05:32:45;92812.38;;;19.65;77.12
10718;BME280;13513;42.700;23.124;2023-05-23T05:35:16;92812.42;;;19.73;77.96
10718;BME280;13513;42.700;23.124;2023-05-23T05:37:47;92812.99;;;19.73;78.66
10718;BME280;13513;42.700;23.124;2023-05-23T05:40:17;92820.69;;;19.03;81.60
10718;BME280;13513;42.700;23.124;2023-05-23T05:42:49;92819.45;;;18.98;81.45
10718;BME280;13513;42.700;23.124;2023-05-23T05:45:18;92818.47;;;19.57;79.57
10718;BME280;13513;42.700;23.124;2023-05-23T05:47:50;92817.55;;;19.61;74.97
10718;BME280;13513;42.700;23.124;2023-05-23T05:50:21;92819.34;;;19.99;74.77
10718;BME280;13513;42.700;23.124;2023-05-23T05:52:52;92824.96;;;20.22;71.04
10718;BME280;13513;42.700;23.124;2023-05-23T05:55:22;92833.33;;;20.71;67.14
10718;BME280;13513;42.700;23.124;2023-05-23T05:57:54;92834.18;;;20.69;64.83
10718;BME280;13513;42.700;23.124;2023-05-23T06:00:24;92834.96;;;20.89;66.11
10718;BME280;13513;42.700;23.124;2023-05-23T06:02:55;92837.45;;;21.07;66.31
10718;BME280;13513;42.700;23.124;2023-05-23T06:05:26;92840.97;;;21.33;65.01
10718;BME280;13513;42.700;23.124;2023-05-23T06:07:56;92843.52;;;21.02;66.72
10718;BME280;13513;42.700;23.124;2023-05-23T06:10:27;92839.45;;;20.82;70.28
10718;BME280;13513;42.700;23.124;2023-05-23T06:12:58;92845.40;;;21.01;68.23
10718;BME280;13513;42.700;23.124;2023-05-23T06:15:29;92845.02;;;21.05;67.10
10718;BME280;13513;42.700;23.124;2023-05-23T06:17:59;92833.37;;;21.27;64.85
10718;BME280;13513;42.700;23.124;2023-05-23T06:20:30;92835.98;;;22.00;63.99
10718;BME280;13513;42.700;23.124;2023-05-23T06:23:00;92834.25;;;21.78;62.73
10718;BME280;13513;42.700;23.124;2023-05-23T06:25:32;92836.70;;;22.11;60.88
10718;BME280;13513;42.700;23.124;2023-05-23T06:28:03;92836.13;;;21.69;63.42
10718;BME280;13513;42.700;23.124;2023-05-23T06:30:33;92837.30;;;21.66;63.57
10718;BME280;13513;42.700;23.124;2023-05-23T06:33:04;92836.34;;;21.62;68.28
10718;BME280;13513;42.700;23.124;2023-05-23T06:35:35;92835.42;;;21.83;63.19
10718;BME280;13513;42.700;23.124;2023-05-23T06:38:06;92839.22;;;22.08;62.46
10718;BME280;13513;42.700;23.124;2023-05-23T06:40:38;92843.43;;;22.11;62.37
10718;BME280;13513;42.700;23.124;2023-05-23T06:43:09;92839.72;;;22.41;61.39
10718;BME280;13513;42.700;23.124;2023-05-23T06:45:40;92844.11;;;22.31;57.67
10718;BME280;13513;42.700;23.124;2023-05-23T06:48:11;92828.72;;;22.57;56.71
10718;BME280;13513;42.700;23.124;2023-05-23T06:50:41;92830.59;;;23.17;58.59
10718;BME280;13513;42.700;23.124;2023-05-23T06:53:12;92832.56;;;23.87;51.65
10718;BME280;13513;42.700;23.124;2023-05-23T06:55:42;92832.09;;;24.26;47.96
10718;BME280;13513;42.700;23.124;2023-05-23T06:58:13;92835.70;;;23.83;46.05
10718;BME280;13513;42.700;23.124;2023-05-23T07:00:49;92833.84;;;24.10;49.28
10718;BME280;13513;42.700;23.124;2023-05-23T07:03:21;92831.84;;;24.52;48.99
10718;BME280;13513;42.700;23.124;2023-05-23T07:05:51;92827.18;;;24.73;47.28
10718;BME280;13513;42.700;23.124;2023-05-23T07:08:22;92819.25;;;24.94;48.57
10718;BME280;13513;42.700;23.124;2023-05-23T07:10:53;92823.73;;;24.84;47.99
10718;BME280;13513;42.700;23.124;2023-05-23T07:13:24;92818.55;;;25.09;48.95
10718;BME280;13513;42.700;23.124;2023-05-23T07:15:54;92824.45;;;25.17;49.17
10718;BME280;13513;42.700;23.124;2023-05-23T07:18:25;92822.64;;;25.21;46.28
10718;BME280;13513;42.700;23.124;2023-05-23T07:20:56;92817.17;;;24.41;48.70
10718;BME280;13513;42.700;23.124;2023-05-23T07:23:26;92815.29;;;23.74;50.05
10718;BME280;13513;42.700;23.124;2023-05-23T07:25:58;92815.84;;;23.09;51.00
10718;BME280;13513;42.700;23.124;2023-05-23T07:28:28;92808.39;;;23.06;52.36
10718;BME280;13513;42.700;23.124;2023-05-23T07:30:59;92809.60;;;23.17;54.45
10718;BME280;13513;42.700;23.124;2023-05-23T07:33:29;92803.25;;;23.22;53.30
10718;BME280;13513;42.700;23.124;2023-05-23T07:36:00;92806.58;;;24.03;52.87
10718;BME280;13513;42.700;23.124;2023-05-23T07:38:31;92806.64;;;23.95;52.12
10718;BME280;13513;42.700;23.124;2023-05-23T07:41:02;92809.65;;;23.38;53.67
10718;BME280;13513;42.700;23.124;2023-05-23T07:43:32;92810.30;;;24.05;48.32
10718;BME280;13513;42.700;23.124;2023-05-23T07:46:04;92806.02;;;23.34;49.13
10718;BME280;13513;42.700;23.124;2023-05-23T07:48:34;92804.34;;;23.06;51.16
10718;BME280;13513;42.700;23.124;2023-05-23T07:51:05;92807.67;;;23.26;51.61
10718;BME280;13513;42.700;23.124;2023-05-23T07:53:36;92809.45;;;22.84;52.62
10718;BME280;13513;42.700;23.124;2023-05-23T07:56:06;92806.43;;;23.15;54.79
10718;BME280;13513;42.700;23.124;2023-05-23T07:58:35;92801.86;;;23.30;52.81
10718;BME280;13513;42.700;23.124;2023-05-23T08:01:05;92802.48;;;23.12;54.41
10718;BME280;13513;42.700;23.124;2023-05-23T08:03:35;92800.45;;;23.24;54.31
10718;BME280;13513;42.700;23.124;2023-05-23T08:06:06;92803.50;;;23.43;53.56
10718;BME280;13513;42.700;23.124;2023-05-23T08:08:37;92798.66;;;23.22;54.70
10718;BME280;13513;42.700;23.124;2023-05-23T08:11:08;92799.75;;;23.71;54.06
10718;BME280;13513;42.700;23.124;2023-05-23T08:13:39;92798.00;;;24.01;54.08
10718;BME280;13513;42.700;23.124;2023-05-23T08:16:10;92800.22;;;23.93;50.78
10718;BME280;13513;42.700;23.124;2023-05-23T08:18:48;92803.48;;;24.13;50.31
10718;BME280;13513;42.700;23.124;2023-05-23T08:21:22;92797.30;;;24.57;50.78
10718;BME280;13513;42.700;23.124;2023-05-23T08:23:55;92799.72;;;24.71;46.85
10718;BME280;13513;42.700;23.124;2023-05-23T08:26:26;92799.25;;;24.63;49.22
10718;BME280;13513;42.700;23.124;2023-05-23T08:28:57;92797.35;;;24.31;50.17
10718;BME280;13513;42.700;23.124;2023-05-23T08:31:29;92799.92;;;23.01;52.83
10718;BME280;13513;42.700;23.124;2023-05-23T08:33:59;92803.23;;;23.51;53.01
10718;BME280;13513;42.700;23.124;2023-05-23T08:36:32;92801.16;;;23.83;49.87
10718;BME280;13513;42.700;23.124;2023-05-23T08:39:03;92804.27;;;24.97;50.41
10718;BME280;13513;42.700;23.124;2023-05-23T08:41:35;92797.20;;;25.86;46.64
10718;BME280;13513;42.700;23.124;2023-05-23T08:44:05;92806.30;;;25.48;45.31
10718;BME280;13513;42.700;23.124;2023-05-23T08:46:38;92802.45;;;24.89;46.64
10718;BME280;13513;42.700;23.124;2023-05-23T08:49:09;92797.16;;;25.04;47.37
10718;BME280;13513;42.700;23.124;2023-05-23T08:51:41;92800.31;;;24.94;43.30
10718;BME280;13513;42.700;23.124;2023-05-23T08:54:11;92800.89;;;25.12;44.65
10718;BME280;13513;42.700;23.124;2023-05-23T08:56:43;92797.03;;;24.95;46.33
10718;BME280;13513;42.700;23.124;2023-05-23T08:59:15;92795.77;;;24.68;44.20
10718;BME280;13513;42.700;23.124;2023-05-23T09:01:48;92788.66;;;25.72;44.32
10718;BME280;13513;42.700;23.124;2023-05-23T09:04:21;92786.20;;;26.55;42.41
10718;BME280;13513;42.700;23.124;2023-05-23T09:06:53;92791.33;;;26.29;39.01
10718;BME280;13513;42.700;23.124;2023-05-23T09:09:24;92784.09;;;25.06;42.35
10718;BME280;13513;42.700;23.124;2023-05-23T09:11:56;92783.06;;;24.99;40.11
10718;BME280;13513;42.700;23.124;2023-05-23T09:14:27;92789.39;;;24.08;44.51
10718;BME280;13513;42.700;23.124;2023-05-23T09:17:03;92791.60;;;23.15;44.66
10718;BME280;13513;42.700;23.124;2023-05-23T09:19:33;92785.18;;;22.38;49.15
10718;BME280;13513;42.700;23.124;2023-05-23T09:22:05;92781.69;;;22.69;49.89
10718;BME280;13513;42.700;23.124;2023-05-23T09:24:37;92792.73;;;21.82;48.55
10718;BME280;13513;42.700;23.124;2023-05-23T09:27:06;92782.47;;;22.07;49.52
10718;BME280;13513;42.700;23.124;2023-05-23T09:29:39;92782.97;;;21.92;51.87
10718;BME280;13513;42.700;23.124;2023-05-23T09:32:12;92784.79;;;20.98;57.50
10718;BME280;13513;42.700;23.124;2023-05-23T09:34:55;92777.56;;;21.32;55.89
10718;BME280;13513;42.700;23.124;2023-05-23T09:37:44;92780.23;;;21.24;52.69
10718;BME280;13513;42.700;23.124;2023-05-23T09:40:15;92780.82;;;21.49;53.01
10718;BME280;13513;42.700;23.124;2023-05-23T09:42:47;92780.05;;;21.91;52.75
10718;BME280;13513;42.700;23.124;2023-05-23T09:45:18;92787.54;;;22.08;46.14
10718;BME280;13513;42.700;23.124;2023-05-23T09:47:51;92775.03;;;21.27;54.14
10718;BME280;13513;42.700;23.124;2023-05-23T09:50:23;92779.08;;;21.53;47.58
10718;BME280;13513;42.700;23.124;2023-05-23T09:52:54;92767.40;;;21.83;52.51
10718;BME280;13513;42.700;23.124;2023-05-23T09:55:25;92782.41;;;21.67;48.52
10718;BME280;13513;42.700;23.124;2023-05-23T09:57:57;92776.54;;;21.56;47.86
10718;BME280;13513;42.700;23.124;2023-05-23T10:00:28;92766.09;;;22.06;57.09
10718;BME280;13513;42.700;23.124;2023-05-23T10:03:11;92774.89;;;21.83;51.18
10718;BME280;13513;42.700;23.124;2023-05-23T10:05:46;92764.98;;;21.98;47.12
10718;BME280;13513;42.700;23.124;2023-05-23T10:08:18;92770.39;;;21.56;47.92
10718;BME280;13513;42.700;23.124;2023-05-23T10:13:48;92775.05;;;21.61;45.66
10718;BME280;13513;42.700;23.124;2023-05-23T10:19:24;92768.42;;;21.59;45.66
10718;BME280;13513;42.700;23.124;2023-05-23T10:21:59;92769.67;;;21.61;48.82
10718;BME280;13513;42.700;23.124;2023-05-23T10:24:32;92764.70;;;21.83;46.49
10718;BME280;13513;42.700;23.124;2023-05-23T10:27:03;92763.64;;;21.64;48.60
10718;BME280;13513;42.700;23.124;2023-05-23T10:29:33;92760.59;;;21.85;46.94
10718;BME280;13513;42.700;23.124;2023-05-23T10:32:05;92760.90;;;21.75;46.67
10718;BME280;13513;42.700;23.124;2023-05-23T10:34:57;92757.72;;;21.56;44.56
10718;BME280;13513;42.700;23.124;2023-05-23T10:40:51;92741.34;;;21.98;45.15
10718;BME280;13513;42.700;23.124;2023-05-23T10:46:20;92735.92;;;22.75;46.17
10718;BME280;13513;42.700;23.124;2023-05-23T10:48:54;92738.19;;;22.50;44.82
10718;BME280;13513;42.700;23.124;2023-05-23T10:51:25;92740.70;;;22.24;47.44
10718;BME280;13513;42.700;23.124;2023-05-23T10:53:57;92749.76;;;22.19;44.34
10718;BME280;13513;42.700;23.124;2023-05-23T10:56:30;92742.38;;;21.82;47.37
10718;BME280;13513;42.700;23.124;2023-05-23T10:59:00;92734.65;;;22.12;47.06
10718;BME280;13513;42.700;23.124;2023-05-23T11:01:30;92736.13;;;22.39;45.70
10718;BME280;13513;42.700;23.124;2023-05-23T11:04:07;92735.16;;;21.97;46.49
10718;BME280;13513;42.700;23.124;2023-05-23T11:09:12;92733.55;;;21.73;47.11
10718;BME280;13513;42.700;23.124;2023-05-23T11:11:53;92739.61;;;21.51;43.92
10718;BME280;13513;42.700;23.124;2023-05-23T11:14:33;92722.12;;;21.85;48.51
10718;BME280;13513;42.700;23.124;2023-05-23T11:17:16;92728.72;;;22.36;45.66
10718;BME280;13513;42.700;23.124;2023-05-23T11:20:08;92725.02;;;22.57;44.12
10718;BME280;13513;42.700;23.124;2023-05-23T11:22:37;92727.20;;;22.78;42.36
10718;BME280;13513;42.700;23.124;2023-05-23T11:25:09;92723.12;;;22.87;42.62
10718;BME280;13513;42.700;23.124;2023-05-23T11:27:44;92722.28;;;22.95;42.74
10718;BME280;13513;42.700;23.124;2023-05-23T11:30:17;92717.23;;;23.14;42.58
10718;BME280;13513;42.700;23.124;2023-05-23T11:32:52;92717.45;;;22.80;41.08
10718;BME280;13513;42.700;23.124;2023-05-23T11:35:23;92704.13;;;23.04;42.12
10718;BME280;13513;42.700;23.124;2023-05-23T11:37:55;92705.55;;;22.52;42.13
10718;BME280;13513;42.700;23.124;2023-05-23T11:43:02;92704.50;;;22.13;43.21
10718;BME280;13513;42.700;23.124;2023-05-23T11:45:33;92706.70;;;22.34;41.10
10718;BME280;13513;42.700;23.124;2023-05-23T11:48:09;92701.94;;;22.48;41.43
10718;BME280;13513;42.700;23.124;2023-05-23T11:50:52;92694.39;;;22.62;44.66
10718;BME280;13513;42.700;23.124;2023-05-23T11:53:25;92696.08;;;22.14;43.96
10718;BME280;13513;42.700;23.124;2023-05-23T11:55:57;92704.13;;;21.91;43.28
10718;BME280;13513;42.700;23.124;2023-05-23T11:58:29;92702.44;;;22.10;41.73
10718;BME280;13513;42.700;23.124;2023-05-23T12:01:07;92694.89;;;22.18;42.68
10718;BME280;13513;42.700;23.124;2023-05-23T12:03:49;92691.77;;;22.30;43.15
10718;BME280;13513;42.700;23.124;2023-05-23T12:06:20;92682.88;;;22.67;45.14
10718;BME280;13513;42.700;23.124;2023-05-23T12:08:51;92684.06;;;23.07;42.13
10718;BME280;13513;42.700;23.124;2023-05-23T12:11:22;92692.28;;;23.11;41.31
10718;BME280;13513;42.700;23.124;2023-05-23T12:13:54;92689.20;;;22.34;42.70
10718;BME280;13513;42.700;23.124;2023-05-23T12:16:25;92678.98;;;22.56;42.08
10718;BME280;13513;42.700;23.124;2023-05-23T12:19:00;92680.92;;;22.62;40.41
10718;BME280;13513;42.700;23.124;2023-05-23T12:21:41;92675.60;;;22.68;41.62
10718;BME280;13513;42.700;23.124;2023-05-23T12:24:17;92674.75;;;22.47;44.57
10718;BME280;13513;42.700;23.124;2023-05-23T12:26:54;92681.20;;;21.94;43.91
10718;BME280;13513;42.700;23.124;2023-05-23T12:29:35;92681.75;;;22.16;42.52
10718;BME280;13513;42.700;23.124;2023-05-23T12:32:06;92673.55;;;22.65;41.58
10718;BME280;13513;42.700;23.124;2023-05-23T12:34:41;92664.09;;;23.14;43.12
10718;BME280;13513;42.700;23.124;2023-05-23T12:37:12;92665.73;;;23.75;40.62
10718;BME280;13513;42.700;23.124;2023-05-23T12:39:46;92662.96;;;23.51;41.25
10718;BME280;13513;42.700;23.124;2023-05-23T12:42:16;92666.12;;;23.32;40.73
10718;BME280;13513;42.700;23.124;2023-05-23T12:44:52;92658.95;;;23.01;41.06
10718;BME280;13513;42.700;23.124;2023-05-23T12:47:23;92650.53;;;23.17;39.95
10718;BME280;13513;42.700;23.124;2023-05-23T12:49:54;92649.77;;;23.43;40.82
10718;BME280;13513;42.700;23.124;2023-05-23T12:52:25;92646.05;;;23.42;41.36
10718;BME280;13513;42.700;23.124;2023-05-23T12:54:56;92645.10;;;23.52;42.24
10718;BME280;13513;42.700;23.124;2023-05-23T12:57:27;92653.41;;;22.71;39.59
10718;BME280;13513;42.700;23.124;2023-05-23T12:59:58;92646.84;;;22.66;41.44
10718;BME280;13513;42.700;23.124;2023-05-23T13:02:29;92647.25;;;23.11;40.17
10718;BME280;13513;42.700;23.124;2023-05-23T13:05:00;92640.51;;;23.65;40.30
10718;BME280;13513;42.700;23.124;2023-05-23T13:07:30;92650.59;;;23.88;38.21
10718;BME280;13513;42.700;23.124;2023-05-23T13:10:01;92650.20;;;23.72;37.98
10718;BME280;13513;42.700;23.124;2023-05-23T13:12:32;92638.73;;;23.15;39.32
10718;BME280;13513;42.700;23.124;2023-05-23T13:15:03;92647.72;;;22.78;41.50
10718;BME280;13513;42.700;23.124;2023-05-23T13:17:35;92650.89;;;22.80;40.29
10718;BME280;13513;42.700;23.124;2023-05-23T13:20:09;92651.01;;;22.84;40.06
10718;BME280;13513;42.700;23.124;2023-05-23T13:22:40;92653.72;;;23.04;38.86
10718;BME280;13513;42.700;23.124;2023-05-23T13:25:12;92643.02;;;23.43;39.79
10718;BME280;13513;42.700;23.124;2023-05-23T13:27:42;92658.84;;;23.65;39.00
10718;BME280;13513;42.700;23.124;2023-05-23T13:30:13;92655.34;;;23.65;43.14
10718;BME280;13513;42.700;23.124;2023-05-23T13:32:42;92646.05;;;23.74;48.79